createdAt,value
2018-08-17T00:01:04.220Z,99.90
2018-08-17T00:03:33.542Z,99.90
2018-08-17T00:06:02.933Z,99.90
2018-08-17T00:08:32.285Z,99.90
2018-08-17T00:11:01.738Z,99.90
2018-08-17T00:13:31.066Z,99.90
2018-08-17T00:16:00.420Z,99.90
2018-08-17T00:18:30.008Z,99.90
2018-08-17T00:20:59.428Z,99.90
2018-08-17T00:23:28.820Z,99.90
2018-08-17T00:25:58.249Z,99.90
2018-08-17T00:28:27.562Z,99.90
2018-08-17T00:30:56.936Z,99.90
2018-08-17T00:33:26.289Z,99.90
2018-08-17T00:35:55.692Z,99.90
2018-08-17T00:38:25.008Z,99.90
2018-08-17T00:40:54.457Z,99.90
2018-08-17T00:43:23.789Z,99.90
2018-08-17T00:45:53.138Z,99.90
2018-08-17T00:48:22.469Z,99.90
2018-08-17T00:50:51.895Z,99.90
2018-08-17T00:53:21.265Z,99.90
2018-08-17T00:55:50.706Z,99.90
2018-08-17T00:58:20.044Z,99.90
2018-08-17T01:00:49.492Z,99.90
2018-08-17T01:03:18.836Z,99.90
2018-08-17T01:05:48.311Z,99.90
2018-08-17T01:08:17.659Z,99.90
2018-08-17T01:10:47.104Z,99.90
2018-08-17T01:13:16.466Z,99.90
2018-08-17T01:15:45.922Z,99.90
2018-08-17T01:18:15.279Z,99.90
2018-08-17T01:20:44.704Z,99.90
2018-08-17T01:23:14.068Z,99.90
2018-08-17T01:25:43.545Z,99.90
2018-08-17T01:28:12.880Z,99.90
2018-08-17T01:30:42.341Z,99.90
2018-08-17T01:33:11.661Z,99.90
2018-08-17T01:35:41.108Z,99.90
2018-08-17T01:38:10.488Z,99.90
2018-08-17T01:40:39.936Z,99.90
2018-08-17T01:43:09.276Z,99.90
2018-08-17T01:45:38.732Z,99.90
2018-08-17T01:48:08.092Z,99.90
2018-08-17T01:50:37.504Z,99.90
2018-08-17T01:53:06.839Z,99.90
2018-08-17T01:55:36.210Z,99.90
2018-08-17T01:58:05.552Z,99.90
2018-08-17T02:00:34.922Z,99.90
2018-08-17T02:03:04.240Z,99.90
2018-08-17T02:05:33.616Z,99.90
2018-08-17T02:08:02.928Z,99.90
2018-08-17T02:10:32.333Z,99.90
2018-08-17T02:13:01.669Z,99.90
2018-08-17T02:15:31.017Z,99.90
2018-08-17T02:18:00.335Z,99.90
2018-08-17T02:20:29.731Z,99.90
2018-08-17T02:22:59.069Z,99.90
2018-08-17T02:25:28.436Z,99.90
2018-08-17T02:27:57.791Z,99.90
2018-08-17T02:30:27.146Z,99.90
2018-08-17T02:32:56.480Z,99.90
2018-08-17T02:35:25.821Z,99.90
2018-08-17T02:37:55.136Z,99.90
2018-08-17T02:40:24.551Z,99.90
2018-08-17T02:42:53.872Z,99.90
2018-08-17T02:45:23.244Z,99.90
2018-08-17T02:47:52.562Z,99.90
2018-08-17T02:50:22.395Z,99.90
2018-08-17T02:52:51.777Z,99.90
2018-08-17T02:55:21.193Z,99.90
2018-08-17T02:57:50.550Z,99.90
2018-08-17T03:00:19.997Z,99.90
2018-08-17T03:02:49.348Z,99.90
2018-08-17T03:05:18.820Z,99.90
2018-08-17T03:07:48.181Z,99.90
2018-08-17T03:10:17.594Z,99.90
2018-08-17T03:12:46.948Z,99.90
2018-08-17T03:15:16.426Z,99.90
2018-08-17T03:17:45.791Z,99.90
2018-08-17T03:20:15.193Z,99.90
2018-08-17T03:22:44.665Z,99.90
2018-08-17T03:25:14.114Z,99.90
2018-08-17T03:27:43.469Z,99.90
2018-08-17T03:30:12.925Z,99.90
2018-08-17T03:32:42.306Z,99.90
2018-08-17T03:35:11.728Z,99.90
2018-08-17T03:37:41.092Z,99.90
2018-08-17T03:40:10.525Z,99.90
2018-08-17T03:42:39.892Z,99.90
2018-08-17T03:45:09.328Z,99.90
2018-08-17T03:47:38.691Z,99.90
2018-08-17T03:50:08.573Z,99.90
2018-08-17T03:52:37.932Z,99.90
2018-08-17T03:55:07.348Z,99.90
2018-08-17T03:57:36.722Z,99.90
2018-08-17T04:00:06.701Z,99.90
2018-08-17T04:02:36.341Z,99.90
2018-08-17T04:05:06.200Z,99.90
2018-08-17T04:07:35.557Z,99.90
2018-08-17T04:10:05.345Z,99.90
2018-08-17T04:12:34.720Z,99.90
2018-08-17T04:15:04.717Z,99.90
2018-08-17T04:17:34.165Z,99.90
2018-08-17T04:20:03.629Z,99.90
2018-08-17T04:22:33.294Z,99.90
2018-08-17T04:25:02.904Z,99.90
2018-08-17T04:27:32.250Z,99.90
2018-08-17T04:30:02.698Z,99.90
2018-08-17T04:32:32.052Z,99.90
2018-08-17T04:35:01.484Z,99.90
2018-08-17T04:37:31.024Z,99.90
2018-08-17T04:40:00.492Z,99.90
2018-08-17T04:42:29.840Z,99.90
2018-08-17T04:44:59.204Z,99.90
2018-08-17T04:47:28.550Z,99.90
2018-08-17T04:49:57.977Z,99.90
2018-08-17T04:52:27.297Z,99.90
2018-08-17T04:54:56.688Z,99.90
2018-08-17T04:57:26.005Z,99.90
2018-08-17T04:59:55.358Z,99.90
2018-08-17T05:02:24.693Z,99.90
2018-08-17T05:04:54.068Z,99.90
2018-08-17T05:07:23.397Z,99.90
2018-08-17T05:09:52.840Z,99.90
2018-08-17T05:12:22.169Z,99.90
2018-08-17T05:14:51.571Z,99.90
2018-08-17T05:17:20.894Z,99.90
2018-08-17T05:19:50.297Z,99.90
2018-08-17T05:22:19.625Z,99.90
2018-08-17T05:24:48.949Z,99.90
2018-08-17T05:27:18.281Z,99.90
2018-08-17T05:29:47.697Z,99.90
2018-08-17T05:32:17.020Z,99.90
2018-08-17T05:34:46.333Z,99.90
2018-08-17T05:37:15.672Z,99.90
2018-08-17T05:39:45.005Z,99.90
2018-08-17T05:42:14.345Z,99.90
2018-08-17T05:44:43.689Z,99.90
2018-08-17T05:47:13.009Z,99.90
2018-08-17T05:49:42.438Z,99.90
2018-08-17T05:52:11.792Z,99.90
2018-08-17T05:54:41.248Z,99.90
2018-08-17T05:57:10.604Z,99.90
2018-08-17T05:59:40.053Z,99.90
2018-08-17T06:02:09.418Z,99.90
2018-08-17T06:04:38.844Z,99.90
2018-08-17T06:07:08.186Z,99.90
2018-08-17T06:09:37.739Z,99.90
2018-08-17T06:12:07.130Z,99.90
2018-08-17T06:14:36.604Z,99.90
2018-08-17T06:17:06.012Z,99.90
2018-08-17T06:19:35.544Z,99.90
2018-08-17T06:22:04.953Z,99.90
2018-08-17T06:24:34.394Z,99.90
2018-08-17T06:27:03.769Z,99.90
2018-08-17T06:29:33.207Z,99.90
2018-08-17T06:32:02.567Z,99.90
2018-08-17T06:34:32.007Z,99.90
2018-08-17T06:37:01.400Z,99.90
2018-08-17T06:39:30.795Z,99.90
2018-08-17T06:42:00.181Z,99.90
2018-08-17T06:44:29.547Z,99.90
2018-08-17T06:46:58.947Z,99.90
2018-08-17T06:49:28.552Z,99.90
2018-08-17T06:51:58.054Z,99.90
2018-08-17T06:54:27.537Z,99.90
2018-08-17T06:56:56.991Z,99.90
2018-08-17T06:59:26.332Z,99.90
2018-08-17T07:01:55.682Z,99.90
2018-08-17T07:04:25.146Z,99.90
2018-08-17T07:06:54.514Z,99.90
2018-08-17T07:09:24.055Z,99.90
2018-08-17T07:11:53.313Z,99.90
2018-08-17T07:14:22.743Z,99.90
2018-08-17T07:16:52.130Z,99.90
2018-08-17T07:19:21.757Z,99.90
2018-08-17T07:21:51.145Z,99.90
2018-08-17T07:24:20.579Z,99.90
2018-08-17T07:26:50.010Z,99.90
2018-08-17T07:29:19.499Z,99.90
2018-08-17T07:31:48.898Z,99.90
2018-08-17T07:34:18.289Z,99.90
2018-08-17T07:36:47.706Z,99.90
2018-08-17T07:39:17.859Z,99.90
2018-08-17T07:41:47.289Z,99.90
2018-08-17T07:44:16.700Z,99.90
2018-08-17T07:46:46.077Z,99.90
2018-08-17T07:49:15.447Z,99.90
2018-08-17T07:51:44.874Z,99.90
2018-08-17T07:54:14.211Z,99.90
2018-08-17T07:56:43.590Z,99.90
2018-08-17T07:59:12.934Z,99.90
2018-08-17T08:01:42.373Z,99.90
2018-08-17T08:04:11.714Z,99.90
2018-08-17T08:06:41.097Z,99.90
2018-08-17T08:09:11.172Z,99.90
2018-08-17T08:11:41.307Z,99.90
2018-08-17T08:14:11.444Z,99.90
2018-08-17T08:16:41.767Z,99.90
2018-08-17T08:19:14.151Z,99.90
2018-08-17T08:21:48.309Z,99.90
2018-08-17T08:24:18.241Z,99.90
2018-08-17T08:26:48.045Z,99.90
2018-08-17T08:29:17.469Z,99.90
2018-08-17T08:31:46.888Z,99.90
2018-08-17T08:34:16.233Z,99.90
2018-08-17T08:36:45.630Z,99.90
2018-08-17T08:39:15.186Z,99.90
2018-08-17T08:41:44.608Z,99.90
2018-08-17T08:44:13.938Z,99.90
2018-08-17T08:46:43.307Z,99.90
2018-08-17T08:49:12.651Z,99.90
2018-08-17T08:51:42.089Z,99.90
2018-08-17T08:54:11.511Z,99.90
2018-08-17T08:56:40.950Z,99.90
2018-08-17T08:59:10.306Z,99.90
2018-08-17T09:01:39.765Z,99.90
2018-08-17T09:04:09.186Z,99.90
2018-08-17T09:06:38.663Z,99.90
2018-08-17T09:09:09.837Z,99.90
2018-08-17T09:11:39.305Z,99.50
2018-08-17T09:14:08.669Z,99.50
2018-08-17T09:16:38.126Z,99.30
2018-08-17T09:19:07.620Z,99.30
2018-08-17T09:21:37.029Z,99.40
2018-08-17T09:24:06.840Z,98.90
2018-08-17T09:26:36.225Z,98.70
2018-08-17T09:29:05.948Z,97.90
2018-08-17T09:31:35.385Z,97.70
2018-08-17T09:34:04.746Z,97.30
2018-08-17T09:36:34.210Z,97.20
2018-08-17T09:39:04.803Z,97.10
2018-08-17T09:41:34.343Z,97.00
2018-08-17T09:44:03.695Z,96.50
2018-08-17T09:46:33.097Z,96.40
2018-08-17T09:49:02.482Z,95.60
2018-08-17T09:51:31.914Z,95.30
2018-08-17T09:54:01.318Z,95.40
2018-08-17T09:56:30.707Z,95.40
2018-08-17T09:59:00.060Z,95.40
2018-08-17T10:01:34.773Z,95.20
2018-08-17T10:04:09.480Z,94.90
2018-08-17T10:06:44.009Z,94.40
2018-08-17T10:09:20.278Z,94.30
2018-08-17T10:11:51.131Z,93.80
2018-08-17T10:14:21.234Z,93.80
2018-08-17T10:16:50.663Z,93.60
2018-08-17T10:19:20.106Z,93.20
2018-08-17T10:21:53.438Z,92.80
2018-08-17T10:24:23.144Z,92.10
2018-08-17T10:26:53.679Z,92.10
2018-08-17T10:29:23.583Z,91.60
2018-08-17T10:31:52.970Z,91.30
2018-08-17T10:34:22.348Z,91.10
2018-08-17T10:36:51.703Z,91.10
2018-08-17T10:39:21.172Z,91.00
2018-08-17T10:41:50.527Z,91.10
2018-08-17T10:44:19.965Z,91.00
2018-08-17T10:46:49.338Z,91.10
2018-08-17T10:49:18.830Z,90.60
2018-08-17T10:51:48.059Z,89.70
2018-08-17T10:54:17.451Z,89.20
2018-08-17T10:56:46.770Z,89.50
2018-08-17T10:59:16.138Z,99.90
2018-08-17T11:01:45.925Z,99.90
2018-08-17T11:04:15.362Z,99.90
2018-08-17T11:06:44.706Z,99.90
2018-08-17T11:09:14.064Z,99.90
2018-08-17T11:11:43.742Z,99.90
2018-08-17T11:14:13.191Z,99.90
2018-08-17T11:16:42.516Z,99.90
2018-08-17T11:19:11.890Z,99.90
2018-08-17T11:21:41.246Z,99.90
2018-08-17T11:24:10.679Z,99.90
2018-08-17T11:26:40.097Z,99.90
2018-08-17T11:29:09.519Z,99.90
2018-08-17T11:31:38.855Z,99.90
2018-08-17T11:34:08.306Z,99.90
2018-08-17T11:36:37.652Z,99.90
2018-08-17T11:39:08.290Z,99.90
2018-08-17T11:41:37.649Z,99.90
2018-08-17T11:44:11.650Z,99.90
2018-08-17T11:46:40.997Z,99.90
2018-08-17T11:49:10.443Z,98.30
2018-08-17T11:51:41.758Z,91.60
2018-08-17T11:54:12.484Z,88.80
2018-08-17T11:56:42.405Z,74.30
2018-08-17T11:59:11.758Z,78.00
2018-08-17T12:01:41.164Z,78.80
2018-08-17T12:04:10.556Z,78.50
2018-08-17T12:06:39.994Z,62.70
2018-08-17T12:09:09.525Z,62.50
2018-08-17T12:11:38.997Z,59.20
2018-08-17T12:14:08.357Z,50.90
2018-08-17T12:16:37.805Z,44.70
2018-08-17T12:19:07.149Z,33.90
2018-08-17T12:21:36.598Z,30.10
2018-08-17T12:24:06.019Z,24.20
2018-08-17T12:26:39.577Z,21.40
2018-08-17T12:29:08.968Z,15.80
2018-08-17T12:31:38.415Z,14.90
2018-08-17T12:34:07.792Z,7.80
2018-08-17T12:36:37.218Z,9.70
2018-08-17T12:39:10.056Z,1.30
2018-08-17T12:41:39.409Z,1.00
2018-08-17T12:44:08.808Z,1.00
2018-08-17T12:46:38.195Z,1.00
2018-08-17T12:49:07.616Z,1.00
2018-08-17T12:51:37.020Z,1.00
2018-08-17T12:54:06.378Z,1.00
2018-08-17T12:56:35.806Z,1.00
2018-08-17T12:59:05.235Z,1.00
2018-08-17T13:01:34.588Z,1.00
2018-08-17T13:04:04.013Z,1.00
2018-08-17T13:06:33.375Z,1.00
2018-08-17T13:09:02.810Z,1.00
2018-08-17T13:11:32.153Z,1.00
2018-08-17T13:14:06.519Z,1.00
2018-08-17T13:16:35.961Z,1.00
2018-08-17T13:19:05.372Z,1.00
2018-08-17T13:21:34.725Z,1.00
2018-08-17T13:24:04.282Z,1.00
2018-08-17T13:26:33.690Z,1.00
2018-08-17T13:29:03.149Z,1.00
2018-08-17T13:31:32.806Z,1.00
2018-08-17T13:34:02.282Z,1.00
2018-08-17T13:36:31.637Z,1.00
2018-08-17T13:39:01.092Z,1.00
2018-08-17T13:41:30.460Z,1.00
2018-08-17T13:43:59.917Z,1.00
2018-08-17T13:46:29.261Z,1.00
2018-08-17T13:48:58.700Z,1.00
2018-08-17T13:51:28.050Z,1.00
2018-08-17T13:53:57.514Z,1.00
2018-08-17T13:56:26.990Z,1.00
2018-08-17T13:58:56.442Z,1.00
2018-08-17T14:01:25.789Z,1.00
2018-08-17T14:03:55.204Z,1.00
2018-08-17T14:06:24.557Z,1.00
2018-08-17T14:08:54.012Z,1.00
2018-08-17T14:11:23.369Z,1.00
2018-08-17T14:13:52.816Z,1.00
2018-08-17T14:16:22.238Z,1.00
2018-08-17T14:18:51.629Z,1.00
2018-08-17T14:21:20.982Z,1.00
2018-08-17T14:23:50.434Z,1.00
2018-08-17T14:26:19.792Z,1.00
2018-08-17T14:28:49.267Z,1.00
2018-08-17T14:31:18.639Z,1.00
2018-08-17T14:33:47.999Z,1.00
2018-08-17T14:36:17.466Z,1.00
2018-08-17T14:38:46.834Z,1.00
2018-08-17T14:41:16.240Z,1.00
2018-08-17T14:43:45.655Z,1.00
2018-08-17T14:46:15.044Z,1.00
2018-08-17T14:48:44.465Z,1.00
2018-08-17T14:51:13.816Z,1.00
2018-08-17T14:53:43.157Z,1.00
2018-08-17T14:56:12.570Z,1.00
2018-08-17T14:58:41.901Z,1.00
2018-08-17T15:01:11.442Z,1.00
2018-08-17T15:03:40.673Z,1.00
2018-08-17T15:06:10.079Z,1.00
2018-08-17T15:08:39.404Z,1.00
2018-08-17T15:11:08.745Z,1.00
2018-08-17T15:13:38.991Z,1.00
2018-08-17T15:16:08.398Z,1.00
2018-08-17T15:18:37.770Z,1.00
2018-08-17T15:21:07.149Z,1.00
2018-08-17T15:23:36.583Z,1.00
2018-08-17T15:26:05.926Z,1.00
2018-08-17T15:28:35.369Z,1.00
2018-08-17T15:31:04.689Z,99.90
2018-08-17T15:33:34.076Z,99.90
2018-08-17T15:36:03.430Z,99.90
2018-08-17T15:38:32.870Z,99.90
2018-08-17T15:41:02.209Z,99.90
2018-08-17T15:43:31.598Z,99.90
2018-08-17T15:46:00.933Z,99.90
2018-08-17T15:48:39.287Z,99.90
2018-08-17T15:51:11.373Z,99.90
2018-08-17T15:53:41.980Z,99.90
2018-08-17T15:56:11.897Z,99.90
2018-08-17T15:58:41.240Z,99.90
2018-08-17T16:01:10.987Z,99.90
2018-08-17T16:03:40.294Z,99.90
2018-08-17T16:06:25.525Z,99.90
2018-08-17T16:13:26.854Z,99.90
2018-08-17T16:47:30.028Z,99.90
2018-08-17T16:49:59.409Z,99.90
2018-08-17T16:52:28.898Z,99.90
2018-08-17T16:54:58.271Z,99.90
2018-08-17T16:57:27.702Z,99.90
2018-08-17T16:59:57.051Z,99.90
2018-08-17T17:02:26.436Z,99.90
2018-08-17T17:04:55.777Z,99.90
2018-08-17T17:07:31.196Z,99.90
2018-08-17T17:10:01.021Z,99.90
2018-08-17T17:12:30.448Z,99.90
2018-08-17T17:15:11.587Z,99.90
2018-08-17T17:17:40.912Z,99.90
2018-08-17T17:20:10.361Z,99.90
2018-08-17T17:22:39.707Z,99.90
2018-08-17T17:25:14.533Z,99.90
2018-08-17T17:27:43.942Z,99.90
2018-08-17T17:30:13.289Z,99.90
2018-08-17T17:32:42.639Z,99.90
2018-08-17T17:35:12.107Z,99.90
2018-08-17T17:37:41.425Z,99.90
2018-08-17T17:40:10.785Z,99.90
2018-08-17T17:42:40.128Z,99.90
2018-08-17T17:45:09.479Z,99.90
2018-08-17T17:47:38.828Z,99.90
2018-08-17T17:50:08.193Z,99.90
2018-08-17T17:52:37.641Z,99.90
2018-08-17T17:55:06.995Z,99.90
2018-08-17T17:57:36.348Z,99.90
2018-08-17T18:00:06.101Z,99.90
2018-08-17T18:02:35.447Z,99.90
2018-08-17T18:05:04.915Z,99.90
2018-08-17T18:07:39.371Z,99.90
2018-08-17T18:10:09.005Z,99.90
2018-08-17T18:12:38.339Z,99.90
2018-08-17T18:15:07.754Z,99.90
2018-08-17T18:17:37.079Z,99.90
2018-08-17T18:20:06.445Z,99.90
2018-08-17T18:22:35.868Z,99.90
2018-08-17T18:25:10.393Z,99.90
2018-08-17T18:27:39.716Z,99.90
2018-08-17T18:30:09.257Z,99.90
2018-08-17T18:32:38.573Z,99.90
2018-08-17T18:35:08.146Z,99.90
2018-08-17T18:37:37.460Z,99.90
2018-08-17T18:40:09.638Z,99.90
2018-08-17T18:42:39.330Z,99.90
2018-08-17T18:45:09.272Z,99.90
2018-08-17T18:47:38.594Z,99.90
2018-08-17T18:50:08.804Z,99.90
2018-08-17T18:52:38.208Z,99.90
2018-08-17T18:55:08.393Z,99.90
2018-08-17T18:57:37.759Z,99.90
2018-08-17T19:00:10.860Z,99.90
2018-08-17T19:02:40.329Z,99.90
2018-08-17T19:05:10.401Z,99.90
2018-08-17T19:07:40.108Z,99.90
2018-08-17T19:10:10.319Z,99.90
2018-08-17T19:12:39.629Z,99.90
2018-08-17T19:15:12.272Z,99.90
2018-08-17T19:17:42.051Z,99.90
2018-08-17T19:20:13.254Z,99.90
2018-08-17T19:22:44.436Z,99.90
2018-08-17T19:25:15.397Z,99.90
2018-08-17T19:27:44.970Z,99.90
2018-08-17T19:30:25.239Z,99.90
2018-08-17T19:33:03.652Z,99.90
2018-08-17T19:35:33.056Z,99.90
2018-08-17T19:38:02.493Z,99.90
2018-08-17T19:40:31.862Z,99.90
2018-08-17T19:43:01.276Z,99.90
2018-08-17T19:45:30.720Z,99.90
2018-08-17T19:48:00.096Z,99.90
2018-08-17T19:50:29.460Z,99.90
2018-08-17T19:52:58.934Z,99.90
2018-08-17T19:55:28.413Z,99.90
2018-08-17T19:57:57.773Z,99.90
2018-08-17T20:00:27.278Z,99.90
2018-08-17T20:02:56.639Z,99.90
2018-08-17T20:05:26.031Z,99.90
2018-08-17T20:07:55.386Z,99.90
2018-08-17T20:10:24.828Z,99.90
2018-08-17T20:12:54.189Z,99.90
2018-08-17T20:15:23.693Z,99.90
2018-08-17T20:17:53.381Z,99.90
2018-08-17T20:20:22.863Z,99.90
2018-08-17T20:22:57.666Z,99.90
2018-08-17T20:25:27.096Z,99.90
2018-08-17T20:27:56.476Z,99.90
2018-08-17T20:30:26.240Z,99.90
2018-08-17T20:32:55.717Z,99.90
2018-08-17T20:35:25.087Z,99.90
2018-08-17T20:37:54.855Z,99.90
2018-08-17T20:40:24.221Z,99.90
2018-08-17T20:42:53.640Z,99.90
2018-08-17T20:45:26.497Z,99.90
2018-08-17T20:47:55.910Z,99.90
2018-08-17T20:50:25.242Z,99.90
2018-08-17T20:52:58.639Z,99.90
2018-08-17T20:55:28.250Z,99.90
2018-08-17T20:57:58.559Z,99.90
2018-08-17T21:00:29.614Z,99.90
2018-08-17T21:02:58.988Z,99.90
2018-08-17T21:05:28.373Z,99.90
2018-08-17T21:07:57.868Z,99.90
2018-08-17T21:10:27.351Z,99.90
2018-08-17T21:12:56.769Z,99.90
2018-08-17T21:15:26.187Z,99.90
2018-08-17T21:17:56.429Z,99.90
2018-08-17T21:20:25.876Z,99.90
2018-08-17T21:22:55.525Z,99.90
2018-08-17T21:25:24.983Z,99.90
2018-08-17T21:27:54.477Z,99.90
2018-08-17T21:30:23.838Z,99.90
2018-08-17T21:32:53.319Z,99.90
2018-08-17T21:35:22.689Z,99.90
2018-08-17T21:37:52.678Z,99.90
2018-08-17T21:40:27.936Z,99.90
2018-08-17T21:42:59.218Z,99.90
2018-08-17T21:45:28.640Z,99.90
2018-08-17T21:47:58.024Z,99.90
2018-08-17T21:50:27.445Z,99.90
2018-08-17T21:52:56.869Z,99.90
2018-08-17T21:55:26.242Z,99.90
2018-08-17T21:57:55.597Z,99.90
2018-08-17T22:00:28.973Z,99.90
2018-08-17T22:02:58.648Z,99.90
2018-08-17T22:05:30.344Z,99.90
2018-08-17T22:08:00.176Z,99.90
2018-08-17T22:10:30.187Z,99.90
2018-08-17T22:12:59.613Z,99.90
2018-08-17T22:15:30.476Z,99.90
2018-08-17T22:18:00.151Z,99.90
2018-08-17T22:20:29.514Z,99.90
2018-08-17T22:22:59.740Z,99.90
2018-08-17T22:25:29.288Z,99.90
2018-08-17T22:27:58.705Z,99.90
2018-08-17T22:30:28.090Z,99.90
2018-08-17T22:32:57.476Z,99.90
2018-08-17T22:35:26.966Z,99.90
2018-08-17T22:37:56.249Z,99.90
2018-08-17T22:40:25.637Z,99.90
2018-08-17T22:42:55.026Z,99.90
2018-08-17T22:45:24.406Z,99.90
2018-08-17T22:47:53.834Z,99.90
2018-08-17T22:50:23.190Z,99.90
2018-08-17T22:52:52.653Z,99.90
2018-08-17T22:55:22.017Z,99.90
2018-08-17T22:57:51.397Z,99.90
2018-08-17T23:00:26.256Z,99.90
2018-08-17T23:02:57.063Z,99.90
2018-08-17T23:05:29.078Z,99.90
2018-08-17T23:07:58.424Z,99.90
2018-08-17T23:10:28.756Z,99.90
2018-08-17T23:12:58.556Z,99.90
2018-08-17T23:15:28.016Z,99.90
2018-08-17T23:18:00.329Z,99.90
2018-08-17T23:20:33.792Z,99.90
2018-08-17T23:23:04.154Z,99.90
2018-08-17T23:25:33.769Z,99.90
2018-08-17T23:28:03.120Z,99.90
2018-08-17T23:30:32.541Z,99.90
2018-08-17T23:33:01.888Z,99.90
2018-08-17T23:35:31.350Z,99.90
2018-08-17T23:38:00.701Z,99.90
2018-08-17T23:40:30.132Z,99.90
2018-08-17T23:42:59.479Z,99.90
2018-08-17T23:45:28.991Z,99.90
2018-08-17T23:47:58.363Z,99.90
2018-08-17T23:50:27.749Z,99.90
2018-08-17T23:52:57.113Z,99.90
2018-08-17T23:55:26.537Z,99.90
2018-08-17T23:57:55.896Z,99.90
